Time;durP1;ratioP1;P1;durP2;ratioP2;P2;SDS_P1;SDS_P2;PMS_P1;PMS_P2;Temp;Humidity;BMP_temperature;BMP_pressure;BME280_temperature;BME280_humidity;BME280_pressure;Samples;Min_cycle;Max_cycle;Signal;HPM_P1;HPM_P2
2022/02/01 00:02:07;;;;;;;3.35;2.70;;;;;;;3.72;80.16;100451.59;6151628;23;20503;-92
2022/02/01 00:36:41;;;;;;;3.58;2.40;;;;;;;4.25;82.71;100515.19;6188153;23;20650;-94
2022/02/01 00:39:41;;;;;;;2.28;2.00;;;;;;;4.00;83.52;100474.63;6145430;23;20140;-94
2022/02/01 00:42:17;;;;;;;2.63;1.90;;;;;;;4.30;84.22;100529.09;6163925;23;20016;-95
2022/02/01 00:44:55;;;;;;;2.92;2.10;;;;;;;3.94;84.55;100479.97;6189925;23;20052;-95
2022/02/01 00:47:26;;;;;;;2.83;2.20;;;;;;;4.04;84.95;100492.03;6189449;23;20017;-93
2022/02/01 00:50:20;;;;;;;2.17;1.98;;;;;;;3.95;84.59;100484.34;6179078;23;20025;-93
2022/02/01 00:52:58;;;;;;;2.05;1.85;;;;;;;4.23;83.76;100535.34;6187264;23;20040;-93
2022/02/01 00:55:43;;;;;;;1.73;1.63;;;;;;;4.31;84.17;100536.06;6163067;23;20437;-93
2022/02/01 00:58:25;;;;;;;;;;;;;;;;;;;;;
2022/02/01 01:01:06;;;;;;;2.75;1.40;;;;;;;4.11;84.22;100522.47;6184937;23;20072;-94
2022/02/01 01:03:44;;;;;;;1.63;1.10;;;;;;;4.08;83.53;100491.97;6182617;23;20083;-94
2022/02/01 01:06:28;;;;;;;1.15;1.05;;;;;;;4.25;83.60;100524.84;6192469;23;20044;-94
2022/02/01 01:09:21;;;;;;;;;;;;;;;;;;;;;
2022/02/01 01:12:13;;;;;;;1.27;0.80;;;;;;;3.97;83.67;100517.47;6191813;23;20029;-92
2022/02/01 01:44:50;;;;;;;4.47;1.83;;;;;;;3.66;85.04;100526.75;6187460;23;20052;-93
2022/02/01 01:53:22;;;;;;;10.50;2.72;;;;;;;4.01;85.58;100617.88;6196996;23;20017;-93
2022/02/01 01:56:03;;;;;;;12.18;2.83;;;;;;;3.99;84.48;100601.28;6177904;23;20021;-94
2022/02/01 01:58:34;;;;;;;9.32;2.53;;;;;;;3.82;84.84;100578.88;6172422;23;20104;-93
2022/02/01 02:01:17;;;;;;;10.52;3.22;;;;;;;4.14;85.26;100627.25;6197553;23;20017;-94
2022/02/01 02:04:05;;;;;;;13.77;3.95;;;;;;;4.03;85.10;100603.84;6201779;23;20023;-93
2022/02/01 02:06:37;;;;;;;14.35;3.67;;;;;;;4.21;84.53;100627.13;6204519;23;20044;-93
2022/02/01 02:09:17;;;;;;;12.57;3.63;;;;;;;4.10;84.69;100599.34;6204234;23;20449;-94
2022/02/01 02:12:19;;;;;;;17.95;3.50;;;;;;;4.10;84.18;100631.66;6199857;23;20017;-93
2022/02/01 02:15:04;;;;;;;20.33;4.28;;;;;;;4.12;82.83;100634.25;6185771;23;20031;-93
2022/02/01 02:17:37;;;;;;;20.02;4.65;;;;;;;4.02;82.25;100632.69;6207128;23;20021;-94
2022/02/01 02:20:32;;;;;;;;;;;;;;;;;;;;;
2022/02/01 02:23:04;;;;;;;20.90;4.35;;;;;;;4.03;81.21;100639.66;6184808;23;20077;-93
2022/02/01 02:25:56;;;;;;;27.65;4.80;;;;;;;4.16;80.28;100642.06;6196025;23;20028;-95
2022/02/01 02:28:25;;;;;;;23.02;4.68;;;;;;;4.18;79.63;100639.41;6194818;23;20078;-92
2022/02/01 02:31:07;;;;;;;23.75;4.28;;;;;;;4.08;78.95;100627.38;6193067;23;20096;-93
2022/02/01 02:34:05;;;;;;;17.30;4.38;;;;;;;4.28;79.28;100664.56;6166635;23;20042;-93
2022/02/01 02:36:40;;;;;;;28.50;4.85;;;;;;;3.89;79.21;100600.59;6194755;23;20040;-93
2022/02/01 02:45:05;;;;;;;18.55;3.90;;;;;;;4.07;77.22;100647.47;6194720;23;20080;-95
2022/02/01 02:47:47;;;;;;;21.15;4.55;;;;;;;4.04;75.84;100641.41;6193833;23;20068;-94
2022/02/01 02:50:22;;;;;;;21.63;3.70;;;;;;;3.93;75.97;100657.31;6194646;23;20040;-95
2022/02/01 02:53:06;;;;;;;23.30;3.60;;;;;;;4.15;75.78;100708.47;6193573;23;20021;-94
2022/02/01 02:55:42;;;;;;;24.63;3.80;;;;;;;3.98;75.31;100672.94;6196076;23;20077;-94
2022/02/01 02:58:28;;;;;;;;;;;;;;;4.18;73.42;100689.22;6190340;23;20064;-95
2022/02/01 03:01:08;;;;;;;20.52;3.25;;;;;;;3.74;74.24;100622.66;6173254;23;20000;-93
2022/02/01 03:03:55;;;;;;;26.80;3.92;;;;;;;3.90;74.24;100666.97;6172290;23;20075;-93
2022/02/01 03:07:16;;;;;;;23.20;3.60;;;;;;;3.68;73.92;100643.69;6114495;23;20040;-95
2022/02/01 03:10:00;;;;;;;24.98;3.60;;;;;;;3.85;74.41;100695.84;6172512;23;20020;-93
2022/02/01 03:15:59;;;;;;;24.48;3.60;;;;;;;3.71;73.79;100645.41;6200325;23;20023;-94
2022/02/01 03:21:44;;;;;;;28.85;3.83;;;;;;;3.75;73.96;100679.41;6206882;23;20016;-92
2022/02/01 03:24:16;;;;;;;17.27;4.00;;;;;;;3.73;74.27;100694.28;6205702;23;20021;-93
2022/02/01 03:27:00;;;;;;;21.20;3.72;;;;;;;3.56;74.00;100658.72;6192334;23;20021;-94
2022/02/01 03:29:53;;;;;;;;;;;;;;;;;;;;;
2022/02/01 03:32:44;;;;;;;17.30;3.95;;;;;;;3.88;73.10;100717.63;6192408;23;20024;-94
2022/02/01 03:35:37;;;;;;;;;;;;;;;;;;;;;
2022/02/01 03:39:03;;;;;;;22.75;4.70;;;;;;;3.65;73.67;100721.44;6196771;23;20468;-92
2022/02/01 03:42:25;;;;;;;16.98;4.30;;;;;;;3.78;73.04;100736.97;6195009;23;20024;-93
2022/02/01 03:45:04;;;;;;;20.63;4.47;;;;;;;3.60;72.94;100732.00;6196231;23;20072;-94
2022/02/01 03:47:48;;;;;;;21.98;4.22;;;;;;;3.59;72.55;100725.03;6196415;23;20428;-93
2022/02/01 03:50:34;;;;;;;22.77;4.20;;;;;;;3.77;72.03;100745.72;6192237;23;20021;-94
2022/02/01 03:53:09;;;;;;;20.73;4.53;;;;;;;3.57;71.56;100718.06;6194959;23;20017;-95
2022/02/01 03:56:26;;;;;;;19.80;4.60;;;;;;;3.74;70.99;100745.78;6194431;23;20043;-94
2022/02/01 03:59:15;;;;;;;17.02;4.00;;;;;;;3.62;71.94;100732.81;6194518;23;20099;-95
2022/02/01 04:01:58;;;;;;;21.48;4.78;;;;;;;3.63;72.18;100734.53;6194533;23;20021;-94
2022/02/01 04:05:28;;;;;;;17.90;4.25;;;;;;;3.80;72.66;100764.00;6195833;23;20020;-95
2022/02/01 04:08:14;;;;;;;;;;;;;;;;;;;;;
2022/02/01 04:11:02;;;;;;;22.75;5.13;;;;;;;3.56;73.86;100708.47;6194623;23;20052;-93
2022/02/01 04:13:52;;;;;;;25.83;4.30;;;;;;;3.50;74.05;100691.97;6196503;23;20040;-95
2022/02/01 04:16:36;;;;;;;22.15;5.00;;;;;;;3.74;74.73;100751.00;6197734;23;20017;-94
2022/02/01 04:19:09;;;;;;;24.95;5.03;;;;;;;3.83;74.95;100769.22;6196756;23;20060;-93
2022/02/01 04:24:59;;;;;;;21.88;4.60;;;;;;;3.53;74.89;100714.63;6161097;23;20025;-92
2022/02/01 06:01:18;;;;;;;19.25;4.60;;;;;;;3.27;84.11;100735.91;6065242;22;6013651;-93
2022/02/01 06:04:06;;;;;;;18.30;3.85;;;;;;;3.37;83.61;100747.13;6317158;22;20068;-95
2022/02/01 06:06:50;;;;;;;20.92;4.55;;;;;;;3.44;84.13;100759.25;6314619;22;20042;-92
2022/02/01 06:09:18;;;;;;;18.77;5.45;;;;;;;3.29;84.42;100739.38;6314721;22;20015;-92
2022/02/01 06:11:50;;;;;;;13.35;4.25;;;;;;;3.40;84.40;100768.03;6315050;22;20063;-92
2022/02/01 06:14:18;;;;;;;15.38;3.88;;;;;;;3.35;84.06;100777.66;6316652;22;20023;-92
2022/02/01 06:16:45;;;;;;;21.15;4.20;;;;;;;3.46;84.80;100799.38;6315885;22;20012;-93
2022/02/01 06:19:31;;;;;;;18.38;4.15;;;;;;;3.44;84.11;100804.63;6314880;22;20019;-94
2022/02/01 06:22:13;;;;;;;17.10;3.85;;;;;;;3.51;83.83;100815.88;6316955;22;20339;-92
2022/02/01 06:24:50;;;;;;;21.75;3.92;;;;;;;3.55;83.60;100801.00;6317851;22;20034;-93
2022/02/01 06:27:22;;;;;;;21.88;4.22;;;;;;;3.49;82.94;100805.41;6317790;22;20054;-92
2022/02/01 06:29:58;;;;;;;17.38;3.85;;;;;;;3.43;83.17;100800.28;6314627;22;20064;-92
2022/02/01 06:32:41;;;;;;;15.48;3.28;;;;;;;3.34;82.30;100762.84;6314464;22;20030;-94
2022/02/01 06:35:16;;;;;;;21.15;3.70;;;;;;;3.34;82.28;100789.88;6315619;22;20012;-92
2022/02/01 06:37:52;;;;;;;17.60;3.92;;;;;;;3.49;82.41;100797.56;6312768;22;20011;-92
2022/02/01 06:40:28;;;;;;;15.27;3.13;;;;;;;3.66;82.78;100823.56;6317459;22;20520;-94
2022/02/01 06:43:00;;;;;;;13.82;3.28;;;;;;;3.34;82.57;100782.03;6315906;22;20359;-93
2022/02/01 06:45:46;;;;;;;19.27;3.30;;;;;;;3.76;81.83;100842.66;6315400;22;20030;-92
2022/02/01 06:48:37;;;;;;;25.67;3.40;;;;;;;3.62;81.77;100795.66;6314675;22;20019;-93
2022/02/01 06:51:17;;;;;;;22.23;4.18;;;;;;;3.76;82.05;100796.38;6318450;22;20098;-92
2022/02/01 06:53:55;;;;;;;17.05;3.03;;;;;;;3.71;82.24;100795.56;6316984;22;20073;-92
2022/02/01 06:56:42;;;;;;;21.20;3.30;;;;;;;3.65;81.05;100779.91;6316563;22;20115;-92
2022/02/01 06:59:13;;;;;;;25.23;2.88;;;;;;;3.35;81.58;100734.03;6316821;22;20023;-95
2022/02/01 07:01:52;;;;;;;16.10;2.85;;;;;;;3.37;82.25;100750.59;6317679;22;20058;-92
2022/02/01 07:04:30;;;;;;;15.43;3.08;;;;;;;3.57;81.31;100775.69;6316718;22;20015;-92
2022/02/01 07:06:57;;;;;;;18.50;2.90;;;;;;;3.59;81.12;100781.75;6316620;22;20018;-92
2022/02/01 07:09:34;;;;;;;18.45;3.20;;;;;;;3.59;81.16;100787.00;6320506;22;20045;-93
2022/02/01 07:12:02;;;;;;;17.58;2.97;;;;;;;3.63;80.63;100802.63;6318406;22;20023;-93
2022/02/01 07:14:32;;;;;;;17.65;2.70;;;;;;;3.64;79.84;100798.25;6317887;22;20003;-93
2022/02/01 07:17:00;;;;;;;18.67;2.38;;;;;;;3.60;79.70;100781.75;6316125;22;20026;-92
2022/02/01 07:19:26;;;;;;;8.65;1.88;;;;;;;3.59;78.95;100766.91;6310555;22;20072;-91
2022/02/01 07:21:57;;;;;;;13.80;2.55;;;;;;;3.55;78.40;100738.16;6314139;22;20506;-92
2022/02/01 07:24:35;;;;;;;17.03;2.70;;;;;;;3.59;78.65;100759.06;6314630;22;20035;-93
2022/02/01 07:27:11;;;;;;;13.93;2.13;;;;;;;3.77;78.59;100813.84;6312982;22;20023;-92
2022/02/01 07:29:41;;;;;;;18.25;2.95;;;;;;;3.63;77.74;100783.44;6310406;22;20011;-93
2022/02/01 07:32:08;;;;;;;11.00;2.58;;;;;;;3.69;78.31;100786.00;6306311;22;20015;-93
2022/02/01 07:34:35;;;;;;;15.65;3.22;;;;;;;3.50;78.09;100761.78;6305898;22;20723;-93
2022/02/01 07:37:04;;;;;;;13.75;2.10;;;;;;;3.79;77.72;100798.94;6304211;22;20058;-92
2022/02/01 07:39:31;;;;;;;14.10;2.30;;;;;;;3.73;78.07;100783.31;6308400;22;20046;-92
2022/02/01 07:41:59;;;;;;;14.85;2.10;;;;;;;3.59;77.47;100750.34;6306897;22;20106;-92
2022/02/01 07:44:26;;;;;;;12.77;2.50;;;;;;;3.72;77.67;100781.59;6308130;22;20027;-93
2022/02/01 07:46:54;;;;;;;11.43;2.67;;;;;;;3.73;77.03;100759.75;6303710;22;20019;-93
2022/02/01 07:49:23;;;;;;;10.43;2.75;;;;;;;3.80;77.02;100773.63;6303358;22;20077;-93
2022/02/01 07:51:50;;;;;;;9.95;2.17;;;;;;;3.81;76.92;100794.56;6306283;22;20026;-93
2022/02/01 07:54:18;;;;;;;15.15;2.08;;;;;;;3.71;76.82;100777.22;6307761;22;20085;-94
2022/02/01 07:56:45;;;;;;;10.25;2.28;;;;;;;3.77;76.26;100777.16;6306407;22;20022;-94
2022/02/01 07:59:17;;;;;;;15.05;3.50;;;;;;;3.70;76.51;100770.25;6304350;22;20301;-93
2022/02/01 08:01:44;;;;;;;12.00;2.30;;;;;;;3.61;77.51;100770.38;6304914;22;20023;-94
2022/02/01 08:04:11;;;;;;;14.35;2.42;;;;;;;3.83;77.13;100816.34;6307622;22;20089;-95
2022/02/01 08:06:39;;;;;;;19.42;2.20;;;;;;;3.77;77.81;100805.09;6306250;22;20023;-95
2022/02/01 08:09:18;;;;;;;12.37;2.20;;;;;;;3.96;76.88;100826.66;6304607;22;20387;-93
2022/02/01 08:11:46;;;;;;;12.55;2.00;;;;;;;3.88;77.27;100806.69;6307095;22;20075;-94
2022/02/01 08:17:09;;;;;;;10.57;2.47;;;;;;;3.77;77.83;100771.06;6306937;22;20023;-92
2022/02/01 08:22:37;;;;;;;11.98;2.10;;;;;;;3.83;77.11;100756.09;6307962;22;20170;-93
2022/02/01 08:25:07;;;;;;;9.52;2.20;;;;;;;3.84;78.06;100763.09;6305217;22;20021;-92
2022/02/01 08:27:34;;;;;;;10.13;2.10;;;;;;;3.86;77.72;100779.66;6304956;22;20015;-93
2022/02/01 08:30:06;;;;;;;12.77;2.28;;;;;;;3.79;78.29;100762.25;6304162;22;20334;-93
2022/02/01 08:32:43;;;;;;;13.10;2.70;;;;;;;3.85;78.64;100777.91;6305779;22;20023;-96
2022/02/01 08:35:32;;;;;;;11.93;2.45;;;;;;;4.14;78.27;100795.84;6300735;22;20030;-93
2022/02/01 08:38:27;;;;;;;10.55;2.50;;;;;;;4.08;79.09;100789.84;6305101;22;20015;-94
2022/02/01 08:40:53;;;;;;;11.02;2.70;;;;;;;3.96;79.45;100766.41;6307031;22;20022;-95
2022/02/01 08:43:24;;;;;;;10.15;2.60;;;;;;;3.96;79.41;100769.03;6302474;22;20015;-92
2022/02/01 08:45:52;;;;;;;10.43;2.60;;;;;;;4.01;78.95;100768.09;6305680;22;20041;-94
2022/02/01 08:48:19;;;;;;;9.20;2.83;;;;;;;4.16;79.60;100796.69;6310027;22;20425;-92
2022/02/01 08:50:49;;;;;;;10.45;2.75;;;;;;;4.01;79.82;100767.22;6313763;22;20106;-94
2022/02/01 08:53:25;;;;;;;8.77;2.72;;;;;;;3.97;79.71;100755.91;6312440;22;20022;-92
2022/02/01 08:56:03;;;;;;;12.18;2.88;;;;;;;4.02;79.87;100748.00;6310256;22;20019;-93
2022/02/01 08:58:49;;;;;;;9.07;2.67;;;;;;;3.92;79.60;100738.53;6311955;22;20069;-92
2022/02/01 09:01:24;;;;;;;11.18;3.30;;;;;;;4.01;79.71;100741.00;6310734;22;20050;-93
2022/02/01 09:03:52;;;;;;;8.55;2.63;;;;;;;3.98;79.78;100741.06;6314642;22;20027;-94
2022/02/01 09:06:23;;;;;;;10.23;3.10;;;;;;;4.09;79.43;100754.88;6311907;22;20012;-94
2022/02/01 09:09:04;;;;;;;10.40;2.65;;;;;;;3.78;79.40;100704.66;6310167;22;20069;-93
2022/02/01 09:11:37;;;;;;;8.13;2.70;;;;;;;4.00;80.96;100747.16;6312496;22;20038;-92
2022/02/01 09:14:04;;;;;;;;;;;;;;;4.16;80.65;100753.88;6314304;22;20461;-92
2022/02/01 09:16:48;;;;;;;11.30;2.40;;;;;;;3.92;79.53;100702.72;6313887;22;19942;-92
2022/02/01 09:19:26;;;;;;;9.20;3.17;;;;;;;3.88;79.67;100699.28;6312589;22;20029;-92
2022/02/01 09:22:07;;;;;;;9.05;2.53;;;;;;;4.24;79.71;100752.03;6312884;22;20027;-92
2022/02/01 09:24:36;;;;;;;9.80;2.95;;;;;;;4.18;80.62;100752.97;6313463;22;20019;-93
2022/02/01 09:27:14;;;;;;;10.52;3.20;;;;;;;4.29;79.77;100752.81;6312561;22;20022;-92
2022/02/01 09:30:05;;;;;;;10.85;3.80;;;;;;;4.15;79.39;100723.31;6311808;22;20459;-93
2022/02/01 09:32:39;;;;;;;9.82;2.95;;;;;;;4.19;78.34;100715.41;6318979;22;20037;-91
2022/02/01 09:35:17;;;;;;;13.38;3.50;;;;;;;4.37;78.85;100743.09;6314598;22;20116;-92
2022/02/01 09:37:51;;;;;;;9.10;3.25;;;;;;;4.41;78.60;100738.63;6312198;22;20368;-92
2022/02/01 09:40:33;;;;;;;13.73;2.90;;;;;;;4.34;78.19;100714.28;6314818;22;20049;-92
2022/02/01 09:43:17;;;;;;;12.55;3.22;;;;;;;4.01;77.30;100644.94;6316221;22;20015;-91
2022/02/01 09:45:59;;;;;;;10.45;3.33;;;;;;;4.01;78.10;100649.31;6310805;22;20350;-93
2022/02/01 09:48:52;;;;;;;13.10;3.25;;;;;;;4.25;77.03;100667.22;6312401;22;20079;-91
2022/02/01 09:51:48;;;;;;;11.30;3.05;;;;;;;4.38;76.73;100668.78;6314586;22;20049;-94
2022/02/01 09:54:30;;;;;;;8.20;2.80;;;;;;;4.17;75.78;100611.47;6313637;22;20058;-93
2022/02/01 09:57:06;;;;;;;11.80;2.78;;;;;;;4.53;75.91;100691.25;6313465;22;20015;-94
2022/02/01 09:59:35;;;;;;;11.60;3.33;;;;;;;4.30;74.35;100644.44;6310286;22;20019;-93
2022/02/01 10:02:08;;;;;;;8.88;2.70;;;;;;;4.34;74.62;100659.22;6316081;22;20019;-94
2022/02/01 10:04:37;;;;;;;11.38;3.00;;;;;;;4.56;74.35;100699.91;6316982;22;20015;-92
2022/02/01 10:07:16;;;;;;;12.52;2.80;;;;;;;4.34;74.10;100669.72;6319219;22;20042;-93
2022/02/01 10:09:57;;;;;;;10.68;2.47;;;;;;;4.55;73.91;100692.94;6316567;22;20029;-92
2022/02/01 10:12:34;;;;;;;11.88;3.17;;;;;;;4.55;73.93;100679.84;6316333;22;20073;-92
2022/02/01 10:15:10;;;;;;;12.50;2.92;;;;;;;4.55;73.79;100673.72;6315674;22;20023;-92
2022/02/01 10:17:50;;;;;;;8.52;2.55;;;;;;;4.49;74.16;100645.84;6317466;22;20015;-92
2022/02/01 10:20:20;;;;;;;13.25;2.80;;;;;;;4.48;73.15;100644.13;6322598;22;20015;-91
2022/02/01 10:22:50;;;;;;;12.10;2.47;;;;;;;4.64;73.72;100672.69;6323234;22;20019;-91
2022/02/01 10:25:31;;;;;;;15.05;2.50;;;;;;;4.31;73.25;100611.22;6318363;22;20026;-93
2022/02/01 10:28:00;;;;;;;9.90;2.67;;;;;;;4.58;73.37;100644.78;6317575;22;20103;-92
2022/02/01 10:30:49;;;;;;;11.38;2.53;;;;;;;4.42;73.08;100606.63;6319442;22;20023;-93
2022/02/01 10:33:59;;;;;;;9.20;1.80;;;;;;;4.70;72.61;100628.84;6317373;22;20026;-91
2022/02/01 10:36:45;;;;;;;9.93;2.03;;;;;;;4.73;72.73;100643.66;6315179;22;20015;-91
2022/02/01 10:39:22;;;;;;;13.63;2.60;;;;;;;4.35;73.27;100553.47;6318696;22;20045;-92
2022/02/01 10:42:02;;;;;;;11.63;2.22;;;;;;;4.74;72.75;100606.88;6324168;22;20046;-92
2022/02/01 10:44:41;;;;;;;10.60;3.28;;;;;;;4.56;73.79;100576.63;6324128;22;20035;-92
2022/02/01 10:47:16;;;;;;;11.93;2.92;;;;;;;4.73;72.85;100597.28;6325528;22;20034;-92
2022/02/01 10:50:09;;;;;;;10.52;2.88;;;;;;;4.78;73.47;100599.81;6323287;22;20124;-92
2022/02/01 10:52:55;;;;;;;8.07;2.15;;;;;;;4.59;74.56;100563.47;6319489;22;20008;-94
2022/02/01 10:55:22;;;;;;;10.95;2.55;;;;;;;4.33;75.46;100525.56;6295672;22;20023;-92
2022/02/01 10:57:54;;;;;;;9.68;2.00;;;;;;;4.34;76.21;100536.00;6318630;22;20022;-94
2022/02/01 11:00:25;;;;;;;12.43;3.00;;;;;;;4.33;77.95;100565.75;6322438;22;20098;-92
2022/02/01 11:02:54;;;;;;;7.43;2.63;;;;;;;4.35;78.01;100581.44;6316828;22;20027;-94
2022/02/01 11:05:27;;;;;;;12.82;2.97;;;;;;;4.18;78.87;100552.91;6314366;22;20045;-92
2022/02/01 11:08:06;;;;;;;11.07;2.83;;;;;;;4.18;80.33;100547.69;6313099;22;20038;-93
2022/02/01 11:10:33;;;;;;;11.35;2.78;;;;;;;4.14;80.90;100559.97;6314088;22;20026;-92
2022/02/01 11:13:06;;;;;;;6.55;2.72;;;;;;;4.05;81.79;100559.28;6314100;22;20074;-91
2022/02/01 11:15:33;;;;;;;9.25;2.42;;;;;;;3.96;82.92;100541.09;6315807;22;20042;-91
2022/02/01 11:18:25;;;;;;;9.35;2.80;;;;;;;3.97;83.89;100527.97;6319024;22;20012;-92
2022/02/01 11:21:07;;;;;;;12.48;3.72;;;;;;;3.99;84.38;100522.69;6318888;22;20015;-93
2022/02/01 11:23:51;;;;;;;11.38;3.08;;;;;;;3.73;85.07;100495.22;6319110;22;20018;-91
2022/02/01 11:26:22;;;;;;;12.00;3.60;;;;;;;3.92;85.91;100524.56;6317722;22;20038;-91
2022/02/01 11:31:32;;;;;;;14.13;3.72;;;;;;;3.72;87.96;100485.63;6312098;22;20034;-92
2022/02/01 11:34:00;;;;;;;14.15;3.58;;;;;;;3.75;88.18;100492.56;6312695;22;20019;-93
2022/02/01 11:36:38;;;;;;;10.15;3.20;;;;;;;3.79;87.78;100478.50;6314431;22;20023;-92
2022/02/01 11:39:11;;;;;;;13.27;3.42;;;;;;;3.62;87.79;100464.88;6309316;22;20023;-91
2022/02/01 11:41:50;;;;;;;10.10;2.92;;;;;;;3.54;87.60;100438.81;6311408;22;20343;-92
2022/02/01 11:44:26;;;;;;;15.63;3.90;;;;;;;3.81;87.92;100468.88;6311479;22;20053;-92
2022/02/01 11:47:12;;;;;;;11.35;3.30;;;;;;;3.77;88.64;100462.84;6313370;22;20019;-92
2022/02/01 11:49:52;;;;;;;16.55;3.80;;;;;;;3.76;88.35;100457.63;6313284;22;20281;-92
2022/02/01 11:52:26;;;;;;;11.18;3.05;;;;;;;3.78;88.64;100446.22;6315144;22;20023;-93
2022/02/01 11:55:03;;;;;;;12.10;3.00;;;;;;;3.75;89.08;100451.53;6312730;22;20023;-92
2022/02/01 11:57:52;;;;;;;12.68;3.25;;;;;;;3.77;90.13;100456.75;6310722;22;20027;-91
2022/02/01 12:00:26;;;;;;;12.95;3.08;;;;;;;3.77;89.98;100449.75;6311764;22;20030;-92
2022/02/01 12:03:09;;;;;;;12.00;3.78;;;;;;;3.52;90.94;100411.78;6315663;22;20019;-92
2022/02/01 12:06:04;;;;;;;9.65;3.20;;;;;;;3.63;90.91;100425.53;6320286;22;20023;-93
2022/02/01 12:08:32;;;;;;;11.30;3.25;;;;;;;3.48;91.77;100395.28;6323710;22;20015;-91
2022/02/01 12:11:03;;;;;;;11.27;3.38;;;;;;;3.52;92.31;100390.84;6313588;22;20030;-92
2022/02/01 12:13:32;;;;;;;8.52;3.80;;;;;;;3.31;92.04;100338.88;6313064;22;20098;-92
2022/02/01 12:16:02;;;;;;;8.65;3.85;;;;;;;3.65;92.86;100392.34;6313417;22;20061;-93
2022/02/01 12:18:32;;;;;;;9.95;3.83;;;;;;;3.81;91.77;100377.19;6311517;22;20015;-92
2022/02/01 12:21:16;;;;;;;7.38;3.67;;;;;;;3.84;91.48;100393.72;6311151;22;20019;-92
2022/02/01 12:24:03;;;;;;;9.07;3.50;;;;;;;3.88;89.52;100379.69;6314871;22;20047;-91
2022/02/01 12:26:42;;;;;;;5.05;3.38;;;;;;;3.74;89.62;100349.41;6312059;22;20383;-93
2022/02/01 12:29:13;;;;;;;7.20;3.25;;;;;;;3.87;89.75;100388.44;6311886;22;20023;-91
2022/02/01 12:31:44;;;;;;;4.78;2.70;;;;;;;3.70;89.53;100335.50;6313185;22;20053;-91
2022/02/01 12:34:17;;;;;;;5.72;3.30;;;;;;;3.77;89.32;100331.03;6312584;22;20023;-92
2022/02/01 12:36:52;;;;;;;4.35;2.85;;;;;;;3.77;88.41;100324.03;6312023;22;20025;-92
2022/02/01 12:39:33;;;;;;;6.63;3.22;;;;;;;3.72;88.65;100314.53;6312274;22;20019;-92
2022/02/01 12:42:16;;;;;;;10.73;3.38;;;;;;;3.98;89.06;100341.03;6312895;22;20019;-91
2022/02/01 12:47:20;;;;;;;7.82;3.45;;;;;;;3.77;89.32;100271.66;6312760;22;20084;-92
2022/02/01 12:50:13;;;;;;;4.53;3.22;;;;;;;4.02;89.84;100305.16;6316169;22;20015;-92
2022/02/01 12:53:00;;;;;;;8.13;3.22;;;;;;;4.09;89.24;100310.22;6314774;22;20027;-93
2022/02/01 12:55:40;;;;;;;6.18;2.67;;;;;;;3.68;89.73;100243.03;6313595;22;20059;-91
2022/02/01 12:58:28;;;;;;;4.38;2.65;;;;;;;3.76;91.66;100274.31;6314602;22;20421;-91
2022/02/01 13:01:04;;;;;;;3.42;2.42;;;;;;;3.87;91.62;100291.50;6313343;22;20042;-91
2022/02/01 13:04:07;;;;;;;3.70;2.45;;;;;;;3.86;92.54;100270.59;6315369;22;20049;-92
2022/02/01 13:06:54;;;;;;;3.58;2.35;;;;;;;3.72;93.66;100254.31;6313007;22;20031;-92
2022/02/01 13:15:42;;;;;;;4.00;2.30;;;;;;;3.66;96.96;100238.72;6303988;22;20023;-91
2022/02/01 13:20:04;;;;;;;3.43;2.67;;;;;;;3.76;98.48;100228.03;6313027;22;20161;-91
2022/02/01 13:21:23;;;;;;;3.15;2.28;;;;;;;3.63;98.50;100199.50;6308603;22;20451;-92
2022/02/01 13:23:57;;;;;;;3.13;2.17;;;;;;;3.84;99.67;100252.28;6312774;22;20019;-92
2022/02/01 13:26:38;;;;;;;3.47;2.10;;;;;;;3.63;99.87;100221.31;6310105;22;20029;-91
2022/02/01 13:29:11;;;;;;;4.40;2.03;;;;;;;3.60;99.53;100179.50;6309149;22;20085;-93
2022/02/01 13:31:51;;;;;;;5.25;2.28;;;;;;;3.77;100.00;100200.94;6311151;22;20029;-91
2022/02/01 13:34:31;;;;;;;2.78;1.80;;;;;;;3.87;100.00;100209.44;6314255;22;20073;-92
2022/02/01 13:37:12;;;;;;;3.47;2.47;;;;;;;3.87;100.00;100194.59;6312340;22;20443;-91
2022/02/01 13:39:47;;;;;;;2.00;1.50;;;;;;;3.84;99.12;100192.03;6317563;22;20057;-90
2022/02/01 13:42:52;;;;;;;;;;;;;;;;;;;;;
2022/02/01 13:46:01;;;;;;;3.10;1.60;;;;;;;3.72;100.00;100166.13;6320092;22;20281;-95
2022/02/01 13:48:41;;;;;;;1.83;1.60;;;;;;;3.66;99.29;100153.16;6344001;22;20276;-91
2022/02/01 13:51:09;;;;;;;1.75;1.40;;;;;;;3.41;99.94;100137.16;6343542;22;20026;-93
2022/02/01 13:53:37;;;;;;;1.50;1.40;;;;;;;3.71;99.96;100166.16;6342094;22;20018;-92
2022/02/01 13:56:09;;;;;;;2.53;1.95;;;;;;;3.61;100.00;100146.31;6344254;22;20044;-93
2022/02/01 13:58:50;;;;;;;3.45;2.00;;;;;;;3.50;100.00;100133.47;6340778;22;20027;-91
2022/02/01 14:01:18;;;;;;;2.45;1.65;;;;;;;3.65;100.00;100140.09;6343406;22;20316;-93
2022/02/01 14:04:12;;;;;;;2.15;1.80;;;;;;;3.53;100.00;100107.22;6345960;22;20064;-93
2022/02/01 14:06:48;;;;;;;3.17;2.20;;;;;;;3.49;100.00;100108.16;6346158;22;20338;-92
2022/02/01 14:28:46;;;;;;;3.45;2.13;;;;;;;3.42;100.00;100089.16;6339615;22;20019;-91
2022/02/01 14:36:41;;;;;;;4.37;2.43;;;;;;;3.37;100.00;100077.91;6338234;22;20023;-93
2022/02/01 14:43:04;;;;;;;2.40;2.20;;;;;;;3.41;100.00;100082.19;6340321;22;20437;-92
2022/02/01 14:44:54;;;;;;;2.85;2.22;;;;;;;3.51;100.00;100101.16;6346153;22;20025;-93
2022/02/01 14:47:22;;;;;;;2.30;2.10;;;;;;;3.56;100.00;100108.91;6344780;22;20042;-91
2022/02/01 14:49:50;;;;;;;2.67;2.10;;;;;;;3.35;100.00;100068.38;6344070;22;20444;-93
2022/02/01 14:52:21;;;;;;;3.63;2.17;;;;;;;3.48;100.00;100080.28;6342281;22;20033;-92
2022/02/01 14:54:51;;;;;;;2.35;2.15;;;;;;;3.60;100.00;100100.09;6341165;22;20071;-92
2022/02/01 15:11:25;;;;;;;2.45;2.20;;;;;;;3.32;100.00;100016.09;6288288;22;20042;-93
2022/02/01 15:13:53;;;;;;;2.85;2.13;;;;;;;3.47;100.00;100040.16;6337397;22;20068;-92
2022/02/01 15:16:27;;;;;;;3.22;2.42;;;;;;;3.57;100.00;100053.03;6334908;22;20026;-93
2022/02/01 15:18:54;;;;;;;3.43;2.40;;;;;;;3.53;100.00;100031.28;6336089;22;20046;-93
2022/02/01 15:21:28;;;;;;;3.30;2.13;;;;;;;3.50;100.00;100031.38;6334795;22;20468;-92
2022/02/01 15:24:04;;;;;;;2.70;1.90;;;;;;;3.34;100.00;99975.91;6336266;22;20071;-92
2022/02/01 15:26:31;;;;;;;3.42;1.98;;;;;;;3.54;100.00;100001.59;6338415;22;20015;-92
2022/02/01 15:28:58;;;;;;;4.43;1.80;;;;;;;3.46;100.00;99972.16;6336005;22;20023;-94
2022/02/01 15:31:40;;;;;;;2.92;2.00;;;;;;;3.46;100.00;99967.75;6336670;22;20019;-92
2022/02/01 15:34:10;;;;;;;;;;;;;;;3.82;100.00;100002.63;6338448;22;20462;-92
2022/02/01 15:36:51;;;;;;;2.70;1.83;;;;;;;3.63;100.00;99977.78;6336987;22;19923;-90
2022/02/01 15:56:35;;;;;;;3.15;1.60;;;;;;;3.58;100.00;99927.34;6338048;22;20072;-93
2022/02/01 15:59:07;;;;;;;3.65;1.92;;;;;;;4.00;100.00;99976.84;6336592;22;20019;-93
2022/02/01 16:02:06;;;;;;;2.17;1.80;;;;;;;3.86;100.00;99957.13;6339839;22;20072;-94
2022/02/01 16:04:50;;;;;;;;;;;;;;;;;;;;;
2022/02/01 16:07:20;;;;;;;2.58;1.55;;;;;;;3.96;100.00;99931.53;6346474;22;20075;-93
2022/02/01 16:13:21;;;;;;;;;;;;;;;;;;;;;
2022/02/01 16:16:01;;;;;;;3.50;1.60;;;;;;;4.13;100.00;99973.84;6344849;22;20014;-93
2022/02/01 16:18:41;;;;;;;2.35;1.65;;;;;;;4.11;100.00;99967.78;6337620;22;20018;-92
2022/02/01 16:21:21;;;;;;;2.30;1.45;;;;;;;3.94;100.00;99935.09;6331192;22;20050;-92
2022/02/01 16:23:59;;;;;;;1.33;1.23;;;;;;;3.98;100.00;99932.34;6335588;22;20026;-93
2022/02/01 16:26:49;;;;;;;1.42;1.30;;;;;;;4.05;100.00;99933.06;6336074;22;20015;-93
2022/02/01 16:29:26;;;;;;;1.98;1.48;;;;;;;4.07;100.00;99928.63;6337513;22;20039;-94
2022/02/01 16:32:00;;;;;;;2.33;1.15;;;;;;;4.06;100.00;99900.72;6335468;22;20003;-92
2022/02/01 16:35:01;;;;;;;1.13;1.00;;;;;;;4.24;100.00;99931.63;6338763;22;20019;-92
2022/02/01 16:37:40;;;;;;;2.10;1.42;;;;;;;4.06;100.00;99887.63;6338184;22;20011;-93
2022/02/01 16:40:24;;;;;;;3.83;1.00;;;;;;;4.45;100.00;99938.88;6337459;22;20633;-92
2022/02/01 16:42:54;;;;;;;2.17;1.20;;;;;;;4.51;100.00;99958.81;6336574;22;20465;-94
2022/02/01 16:45:26;;;;;;;1.35;1.17;;;;;;;4.39;100.00;99930.34;6337451;22;20015;-93
2022/02/01 16:51:20;;;;;;;1.55;1.00;;;;;;;4.48;100.00;99930.91;6339062;22;20018;-93
2022/02/01 16:54:39;;;;;;;1.08;0.90;;;;;;;4.53;100.00;99921.16;6334600;22;20018;-92